LFRH 281600Z AUTO 23017KT 1400 1300 R25/P2000 R07/1700D -DZ BR VV/ 12/12 Q1010 BECMG 25015G25KT

ElémentsDécodage
LFRH Station météo située sur l'aérodrome de LORIENT Lann-Bihoué
281600Z émis le 28 du mois à 16h00 UTC
AUTO Bulletin édité par un automate
23017KT vent du 230°, 17 noeuds
1400 visibilité horizontale de 1400 mètres
1300 visibilité horizontale de 1300 mètres
R25/P2000 portée visuelle de piste
piste 25, plus de 2000 mètres
R07/1700D portée visuelle de piste
piste 07, 1700 mètres, en baisse
-DZ faible bruine
BR brume
VV/ Visibilité verticale: /00 pieds
12/12 température 12°C, point de rosée 12°C
 soit une humidité relative de 100%
Q1010 la pression au niveau de la mer (QNH) est de 1010 hPa
BECMG fluctuation du temps prévue
25015G25KT vent du 250°, moyenne: 15 noeuds, avec rafales à 25 noeuds